Time;durP1;ratioP1;P1;durP2;ratioP2;P2;SDS_P1;SDS_P2;PMS_P1;PMS_P2;Temp;Humidity;BMP_temperature;BMP_pressure;BME280_temperature;BME280_humidity;BME280_pressure;Samples;Min_cycle;Max_cycle;Signal;HPM_P1;HPM_P2
2023/03/17 00:02:20;;;;;;;7.35;3.90;;;5.00;75.90;;;;;;5015403;28;20045;-61
2023/03/17 00:04:53;;;;;;;6.88;3.75;;;5.00;76.00;;;;;;5014929;28;20057;-61
2023/03/17 00:07:26;;;;;;;8.13;3.95;;;5.00;76.00;;;;;;5015252;28;20038;-63
2023/03/17 00:09:59;;;;;;;7.05;3.67;;;4.90;76.20;;;;;;5013071;28;20049;-59
2023/03/17 00:12:33;;;;;;;6.38;3.38;;;4.90;76.30;;;;;;5013887;28;20061;-60
2023/03/17 00:15:07;;;;;;;6.70;3.53;;;4.90;76.40;;;;;;5014643;28;20057;-61
2023/03/17 00:17:42;;;;;;;6.20;3.60;;;4.90;76.30;;;;;;5034093;28;20048;-64
2023/03/17 00:20:23;;;;;;;7.93;3.67;;;4.90;76.50;;;;;;5030612;28;20071;-65
2023/03/17 00:22:58;;;;;;;8.15;4.10;;;4.80;76.40;;;;;;5014706;28;20160;-62
2023/03/17 00:25:34;;;;;;;7.28;4.10;;;4.90;76.60;;;;;;5013963;28;20068;-62
2023/03/17 00:28:16;;;;;;;7.97;3.80;;;4.90;76.20;;;;;;5013788;28;20049;-61
2023/03/17 00:30:53;;;;;;;6.75;3.97;;;4.90;75.60;;;;;;5013182;28;20096;-62
2023/03/17 00:33:29;;;;;;;10.13;4.20;;;5.00;75.80;;;;;;5014889;28;20054;-62
2023/03/17 00:36:03;;;;;;;6.45;3.60;;;5.00;75.40;;;;;;5015136;28;20130;-62
2023/03/17 00:38:37;;;;;;;7.30;3.65;;;5.10;75.60;;;;;;5033405;28;20542;-61
2023/03/17 00:41:11;;;;;;;7.60;3.90;;;5.00;75.50;;;;;;5021187;28;20058;-64
2023/03/17 00:43:45;;;;;;;7.00;3.38;;;5.10;75.60;;;;;;5011971;28;20049;-65
2023/03/17 00:46:23;;;;;;;7.63;4.00;;;5.10;75.10;;;;;;5014667;28;20129;-67
2023/03/17 00:48:58;;;;;;;7.35;3.80;;;5.10;74.90;;;;;;4988225;28;20489;-67
2023/03/17 00:51:32;;;;;;;7.57;3.65;;;5.10;75.00;;;;;;5029917;28;20439;-65
2023/03/17 00:54:07;;;;;;;8.57;3.80;;;5.10;75.20;;;;;;5012249;28;20052;-67
2023/03/17 00:56:41;;;;;;;7.15;3.60;;;5.10;75.10;;;;;;5022119;28;20061;-64
2023/03/17 00:59:20;;;;;;;6.97;3.25;;;5.10;75.30;;;;;;5029025;28;20045;-63
2023/03/17 01:01:54;;;;;;;6.72;3.80;;;5.10;75.20;;;;;;5013375;28;20053;-64
2023/03/17 01:04:28;;;;;;;8.63;3.53;;;5.10;75.20;;;;;;5034630;28;20037;-64
2023/03/17 01:07:02;;;;;;;7.45;3.53;;;5.00;75.40;;;;;;5028502;28;20042;-60
2023/03/17 01:09:35;;;;;;;6.90;3.70;;;5.00;75.60;;;;;;5037122;28;20045;-62
2023/03/17 01:12:12;;;;;;;6.25;3.55;;;5.00;75.80;;;;;;5036861;28;20064;-70
2023/03/17 01:14:45;;;;;;;9.55;3.92;;;5.00;75.80;;;;;;5015839;28;20045;-70
2023/03/17 01:17:18;;;;;;;5.97;3.28;;;4.90;75.90;;;;;;5034772;28;20045;-64
2023/03/17 01:19:52;;;;;;;6.95;3.25;;;4.90;76.00;;;;;;5038452;28;20045;-63
2023/03/17 01:22:26;;;;;;;6.65;3.45;;;4.80;76.20;;;;;;4991376;28;20128;-70
2023/03/17 01:24:59;;;;;;;6.40;3.33;;;4.90;76.30;;;;;;5007841;28;20057;-71
2023/03/17 01:27:35;;;;;;;6.38;3.40;;;4.90;76.30;;;;;;5029770;28;20444;-70
2023/03/17 01:30:13;;;;;;;6.32;3.40;;;4.80;76.00;;;;;;5006089;28;20443;-70
2023/03/17 01:32:48;;;;;;;5.95;3.25;;;4.90;76.20;;;;;;5012004;28;20133;-64
2023/03/17 01:35:24;;;;;;;6.20;3.42;;;4.90;76.10;;;;;;5018115;28;20053;-61
2023/03/17 01:37:59;;;;;;;5.10;3.03;;;4.90;76.10;;;;;;5015368;28;20053;-60
2023/03/17 01:40:41;;;;;;;7.10;3.40;;;4.90;76.20;;;;;;5017423;28;20042;-63
2023/03/17 01:43:21;;;;;;;6.00;3.40;;;4.80;75.80;;;;;;5016841;28;20049;-64
2023/03/17 01:46:26;;;;;;;6.03;3.10;;;4.90;75.90;;;;;;5035221;28;20041;-64
2023/03/17 01:49:06;;;;;;;5.20;3.25;;;4.90;75.90;;;;;;5015715;28;20282;-67
2023/03/17 01:51:50;;;;;;;5.80;3.20;;;4.90;76.20;;;;;;5036755;28;20128;-61
2023/03/17 01:54:30;;;;;;;6.70;2.97;;;4.80;76.00;;;;;;5037555;28;20315;-62
2023/03/17 01:57:10;;;;;;;6.28;3.33;;;4.90;76.20;;;;;;5036243;28;20140;-66
2023/03/17 01:59:49;;;;;;;5.03;2.80;;;4.80;76.00;;;;;;5024324;28;20506;-65
2023/03/17 02:02:25;;;;;;;6.57;3.30;;;4.80;76.10;;;;;;5017241;28;20524;-64
2023/03/17 02:05:00;;;;;;;6.60;3.30;;;4.90;75.90;;;;;;5033973;28;20042;-64
2023/03/17 02:07:36;;;;;;;6.93;3.75;;;4.90;75.90;;;;;;5031602;28;20049;-60
2023/03/17 02:10:11;;;;;;;6.50;3.30;;;4.90;76.30;;;;;;5015127;28;20044;-62
2023/03/17 02:12:47;;;;;;;5.70;3.17;;;4.90;76.10;;;;;;5015558;28;20152;-62
2023/03/17 02:15:22;;;;;;;5.53;3.05;;;4.80;76.30;;;;;;4992839;28;20057;-60
2023/03/17 02:17:56;;;;;;;5.55;2.97;;;4.80;76.40;;;;;;4989879;28;20052;-60
2023/03/17 02:21:13;;;;;;;6.10;3.50;;;4.80;76.10;;;;;;5027582;28;20057;-61
2023/03/17 02:23:47;;;;;;;5.80;3.05;;;4.80;76.50;;;;;;5015566;28;20094;-63
2023/03/17 02:26:23;;;;;;;5.65;3.33;;;4.80;76.70;;;;;;5035562;28;20048;-65
2023/03/17 02:28:56;;;;;;;5.60;2.90;;;4.80;76.70;;;;;;5013585;28;20488;-65
2023/03/17 02:31:30;;;;;;;4.95;2.78;;;4.70;76.80;;;;;;5014104;28;20085;-67
2023/03/17 02:34:04;;;;;;;6.00;3.03;;;4.80;76.90;;;;;;5016564;28;20059;-66
2023/03/17 02:36:38;;;;;;;5.57;3.10;;;4.90;76.20;;;;;;5017364;28;20096;-60
2023/03/17 02:39:13;;;;;;;6.30;3.22;;;4.90;76.00;;;;;;5025863;28;20052;-60
2023/03/17 02:41:54;;;;;;;5.20;2.97;;;4.90;76.00;;;;;;5018629;28;20043;-62
2023/03/17 02:44:28;;;;;;;5.60;3.03;;;4.90;76.00;;;;;;5014900;28;20047;-65
2023/03/17 02:47:03;;;;;;;7.70;3.10;;;4.90;76.10;;;;;;5018050;28;20046;-70
2023/03/17 02:49:38;;;;;;;5.72;3.20;;;4.90;76.50;;;;;;5013524;28;20493;-70
2023/03/17 02:52:12;;;;;;;6.22;3.60;;;4.80;76.50;;;;;;5014807;28;20449;-65
2023/03/17 02:54:46;;;;;;;6.78;3.13;;;4.80;76.70;;;;;;5012924;28;20052;-64
2023/03/17 02:57:20;;;;;;;7.22;3.03;;;4.80;76.80;;;;;;5016572;28;20060;-63
2023/03/17 02:59:54;;;;;;;7.32;3.45;;;4.80;76.60;;;;;;5035145;28;20126;-64
2023/03/17 03:02:27;;;;;;;7.00;3.13;;;4.80;76.30;;;;;;5037050;28;20091;-60
2023/03/17 03:05:00;;;;;;;6.43;3.13;;;4.80;76.40;;;;;;5031907;28;20055;-62
2023/03/17 03:07:33;;;;;;;5.78;3.05;;;4.80;76.20;;;;;;5036881;28;20047;-65
2023/03/17 03:10:09;;;;;;;6.32;3.40;;;4.90;75.80;;;;;;5030996;28;20076;-66
2023/03/17 03:12:42;;;;;;;5.88;3.38;;;4.90;75.80;;;;;;5034837;28;20130;-65
2023/03/17 03:15:16;;;;;;;8.50;3.67;;;4.80;75.80;;;;;;5016605;28;20107;-65
2023/03/17 03:17:50;;;;;;;6.10;3.53;;;4.80;75.50;;;;;;5007844;28;20038;-67
2023/03/17 03:20:23;;;;;;;6.90;3.50;;;4.80;75.60;;;;;;5014078;28;20043;-61
2023/03/17 03:23:02;;;;;;;5.97;3.38;;;4.90;75.60;;;;;;5013722;28;20333;-62
2023/03/17 03:25:38;;;;;;;5.75;3.03;;;4.80;75.60;;;;;;5017268;28;20469;-61
2023/03/17 03:28:11;;;;;;;6.13;3.35;;;4.80;75.50;;;;;;5015643;28;20057;-62
2023/03/17 03:30:45;;;;;;;6.10;3.42;;;4.90;75.50;;;;;;5014750;28;20057;-71
2023/03/17 03:33:19;;;;;;;7.97;3.42;;;4.90;75.50;;;;;;5010181;28;20057;-71
2023/03/17 03:35:46;;;;;;;5.82;2.92;;;4.90;75.60;;;;;;5014986;28;20050;-71
2023/03/17 03:38:19;;;;;;;6.07;2.90;;;4.90;75.30;;;;;;5011799;28;20661;-72
2023/03/17 03:40:54;;;;;;;5.75;3.17;;;4.90;75.00;;;;;;5015498;28;20128;-63
2023/03/17 03:43:35;;;;;;;6.70;3.20;;;4.90;75.30;;;;;;5013435;28;20103;-61
2023/03/17 03:46:09;;;;;;;6.95;3.40;;;4.80;75.20;;;;;;5011819;28;20050;-66
2023/03/17 03:48:42;;;;;;;6.72;2.83;;;4.80;75.20;;;;;;5014340;28;20372;-66
2023/03/17 03:51:15;;;;;;;4.97;3.05;;;4.80;75.50;;;;;;5014744;28;20049;-66
2023/03/17 03:53:49;;;;;;;5.35;3.00;;;4.70;75.70;;;;;;5016617;28;20041;-66
2023/03/17 03:56:23;;;;;;;6.22;3.00;;;4.70;75.60;;;;;;5015315;28;20124;-64
2023/03/17 03:58:57;;;;;;;6.43;3.10;;;4.80;75.60;;;;;;5016747;28;20038;-64
2023/03/17 04:01:30;;;;;;;6.32;3.17;;;4.80;75.40;;;;;;4998813;28;20635;-66
2023/03/17 04:04:03;;;;;;;5.50;2.50;;;4.80;75.50;;;;;;5010177;28;20463;-66
2023/03/17 04:06:36;;;;;;;6.65;2.85;;;4.70;75.60;;;;;;5016053;28;20076;-71
2023/03/17 04:09:09;;;;;;;5.55;2.78;;;4.70;76.00;;;;;;5014967;28;20178;-71
2023/03/17 04:11:43;;;;;;;6.40;2.75;;;4.70;76.20;;;;;;5006810;28;20038;-61
2023/03/17 04:14:17;;;;;;;5.57;2.78;;;4.70;76.30;;;;;;5013976;28;20049;-62
2023/03/17 04:16:50;;;;;;;5.80;3.10;;;4.60;76.40;;;;;;5016443;28;20095;-64
2023/03/17 04:19:23;;;;;;;5.03;2.70;;;4.60;76.60;;;;;;5010809;28;20045;-63
2023/03/17 04:21:56;;;;;;;5.80;3.05;;;4.60;76.70;;;;;;5014524;28;20050;-62
2023/03/17 04:24:29;;;;;;;6.82;3.38;;;4.60;76.50;;;;;;5013555;28;20042;-60
2023/03/17 04:27:04;;;;;;;5.82;3.03;;;4.60;76.20;;;;;;5012063;28;20069;-71
2023/03/17 04:29:37;;;;;;;5.32;3.20;;;4.60;76.10;;;;;;5015179;28;20054;-70
2023/03/17 04:32:12;;;;;;;5.82;2.80;;;4.60;75.80;;;;;;5009283;28;20065;-71
2023/03/17 04:34:45;;;;;;;5.32;2.72;;;4.60;75.70;;;;;;5016192;28;20081;-71
2023/03/17 04:37:18;;;;;;;3.95;2.40;;;4.60;75.60;;;;;;5013989;28;20099;-63
2023/03/17 04:39:52;;;;;;;5.65;2.90;;;4.70;75.60;;;;;;5018698;28;20046;-64
2023/03/17 04:42:33;;;;;;;6.38;2.60;;;4.70;75.30;;;;;;5021100;28;20148;-64
2023/03/17 04:45:11;;;;;;;4.95;2.65;;;4.70;75.40;;;;;;5012936;28;20107;-64
2023/03/17 04:47:45;;;;;;;5.07;2.63;;;4.70;75.10;;;;;;5017564;28;20046;-64
2023/03/17 04:50:18;;;;;;;4.95;2.70;;;4.70;75.10;;;;;;5013648;28;20059;-63
2023/03/17 04:52:51;;;;;;;7.72;2.70;;;4.60;75.10;;;;;;5017776;28;20060;-64
2023/03/17 04:55:27;;;;;;;4.65;2.70;;;4.60;75.20;;;;;;5017484;28;20503;-64
2023/03/17 04:58:01;;;;;;;6.00;2.90;;;4.70;75.20;;;;;;5038046;28;20049;-62
2023/03/17 05:00:37;;;;;;;5.47;2.60;;;4.60;75.00;;;;;;5019625;28;20476;-71
2023/03/17 05:03:11;;;;;;;5.80;3.10;;;4.60;75.00;;;;;;5014832;28;20147;-70
2023/03/17 05:05:45;;;;;;;5.30;2.75;;;4.70;75.10;;;;;;5018217;28;20057;-61
2023/03/17 05:08:19;;;;;;;4.38;2.47;;;4.60;74.90;;;;;;5017309;28;20088;-61
2023/03/17 05:10:53;;;;;;;5.72;2.75;;;4.70;75.20;;;;;;5015802;28;20091;-63
2023/03/17 05:13:28;;;;;;;3.83;2.20;;;4.60;74.80;;;;;;5018548;28;20088;-62
2023/03/17 05:16:02;;;;;;;8.57;2.60;;;4.70;75.00;;;;;;5018277;28;20053;-61
2023/03/17 05:18:35;;;;;;;5.75;2.33;;;4.60;74.50;;;;;;5019569;28;20053;-61
2023/03/17 05:21:10;;;;;;;5.20;2.22;;;4.70;75.00;;;;;;5017945;28;20599;-70
2023/03/17 05:23:43;;;;;;;5.05;2.53;;;4.60;74.80;;;;;;5037850;28;20055;-70
2023/03/17 05:26:16;;;;;;;4.43;2.63;;;4.60;74.80;;;;;;5036829;28;20088;-63
2023/03/17 05:28:51;;;;;;;7.07;2.75;;;4.60;74.70;;;;;;5037110;28;20498;-63
2023/03/17 05:31:24;;;;;;;3.92;2.28;;;4.60;74.60;;;;;;5036891;28;20051;-67
2023/03/17 05:33:57;;;;;;;4.75;2.40;;;4.70;74.80;;;;;;5037988;28;20083;-67
2023/03/17 05:36:30;;;;;;;5.15;2.35;;;4.60;74.60;;;;;;5018176;28;20041;-71
2023/03/17 05:39:04;;;;;;;5.93;2.30;;;4.70;74.50;;;;;;5017832;28;20140;-71
2023/03/17 05:41:45;;;;;;;4.57;2.35;;;4.60;74.40;;;;;;5016880;28;20557;-71
2023/03/17 05:44:20;;;;;;;5.63;2.50;;;4.70;74.70;;;;;;5015516;28;20460;-70
2023/03/17 05:46:54;;;;;;;3.95;2.05;;;4.70;74.50;;;;;;5014362;28;20060;-63
2023/03/17 05:49:28;;;;;;;4.18;2.25;;;4.70;74.80;;;;;;5017392;28;20050;-62
2023/03/17 05:52:02;;;;;;;4.22;2.33;;;4.70;74.50;;;;;;5018557;28;20108;-62
2023/03/17 05:54:36;;;;;;;4.32;2.17;;;4.70;74.30;;;;;;5015033;28;20049;-62
2023/03/17 05:57:09;;;;;;;5.97;2.88;;;4.70;74.30;;;;;;5017791;28;20049;-65
2023/03/17 05:59:44;;;;;;;4.95;2.10;;;4.70;74.30;;;;;;5038139;28;20064;-66
2023/03/17 06:02:18;;;;;;;5.47;2.50;;;4.70;74.30;;;;;;5007239;28;20051;-62
2023/03/17 06:04:51;;;;;;;4.82;2.53;;;4.70;74.30;;;;;;5036974;28;20057;-60
2023/03/17 06:07:24;;;;;;;5.93;2.15;;;4.70;73.90;;;;;;5016487;28;20045;-61
2023/03/17 06:09:57;;;;;;;4.75;2.15;;;4.70;73.90;;;;;;5017238;28;20115;-61
2023/03/17 06:12:30;;;;;;;4.60;2.03;;;4.70;73.90;;;;;;5013464;28;20077;-62
2023/03/17 06:15:07;;;;;;;3.55;1.90;;;4.70;73.60;;;;;;5017376;28;20146;-61
2023/03/17 06:17:40;;;;;;;4.22;2.00;;;4.60;73.70;;;;;;5016967;28;20429;-72
2023/03/17 06:20:20;;;;;;;4.18;2.20;;;4.60;73.50;;;;;;5016577;28;20442;-71
2023/03/17 06:22:54;;;;;;;5.30;2.20;;;4.70;73.70;;;;;;5035521;28;20053;-71
2023/03/17 06:25:27;;;;;;;5.43;2.28;;;4.70;73.40;;;;;;5017078;28;20069;-63
2023/03/17 06:28:02;;;;;;;4.18;1.95;;;4.70;73.70;;;;;;5018355;28;20059;-61
2023/03/17 06:30:37;;;;;;;4.32;1.85;;;4.70;73.80;;;;;;5017112;28;20064;-59
2023/03/17 06:33:10;;;;;;;4.85;2.20;;;4.70;73.70;;;;;;5016469;28;20523;-59
2023/03/17 06:35:43;;;;;;;4.20;1.92;;;4.70;73.60;;;;;;5015255;28;20069;-65
2023/03/17 06:38:23;;;;;;;4.18;2.10;;;4.70;73.40;;;;;;5017290;28;20069;-67
2023/03/17 06:40:56;;;;;;;3.78;2.13;;;4.70;73.40;;;;;;5018061;28;20119;-60
2023/03/17 06:43:36;;;;;;;4.40;2.00;;;4.70;73.40;;;;;;5016407;28;20506;-61
2023/03/17 06:46:11;;;;;;;5.18;2.03;;;4.70;73.80;;;;;;5018262;28;20042;-61
2023/03/17 06:48:45;;;;;;;4.32;2.00;;;4.80;73.30;;;;;;5011479;28;20453;-61
2023/03/17 06:51:18;;;;;;;4.55;1.92;;;4.80;73.30;;;;;;5014410;28;20069;-64
2023/03/17 06:53:45;;;;;;;5.70;3.03;;;4.80;73.60;;;;;;5015616;28;20126;-64
2023/03/17 06:56:18;;;;;;;4.57;2.00;;;4.80;73.60;;;;;;5012849;28;20492;-61
2023/03/17 06:58:52;;;;;;;3.50;1.70;;;4.80;73.40;;;;;;5014992;28;20133;-61
2023/03/17 07:01:27;;;;;;;3.25;1.80;;;4.80;73.60;;;;;;5016858;28;20133;-60
2023/03/17 07:04:01;;;;;;;4.35;1.95;;;4.80;73.80;;;;;;5000796;28;20180;-61
2023/03/17 07:06:34;;;;;;;4.57;1.95;;;4.90;73.40;;;;;;5001451;28;20180;-62
2023/03/17 07:09:08;;;;;;;3.28;1.80;;;4.90;73.30;;;;;;5015647;28;20046;-61
2023/03/17 07:11:42;;;;;;;4.03;1.85;;;4.90;73.10;;;;;;5013973;28;20641;-60
2023/03/17 07:14:17;;;;;;;3.92;1.88;;;4.90;73.10;;;;;;5013247;28;20069;-62
2023/03/17 07:16:51;;;;;;;3.75;1.67;;;4.90;73.20;;;;;;5013627;28;20452;-61
2023/03/17 07:19:26;;;;;;;3.42;1.77;;;4.90;73.20;;;;;;5009579;28;20049;-61
2023/03/17 07:21:59;;;;;;;4.00;1.83;;;5.00;73.60;;;;;;5009359;28;20077;-60
2023/03/17 07:24:32;;;;;;;5.22;1.95;;;4.90;73.50;;;;;;5009941;28;20044;-61
2023/03/17 07:27:07;;;;;;;3.92;1.80;;;5.00;73.10;;;;;;4994383;28;20064;-61
2023/03/17 07:29:40;;;;;;;4.32;2.10;;;5.00;73.00;;;;;;5009838;28;20085;-60
2023/03/17 07:32:15;;;;;;;4.65;2.00;;;5.00;73.10;;;;;;5011023;28;20049;-61
2023/03/17 07:34:49;;;;;;;3.95;1.92;;;5.00;72.70;;;;;;5014843;28;20556;-61
2023/03/17 07:37:22;;;;;;;5.35;1.70;;;5.10;72.60;;;;;;5008426;28;20100;-61
2023/03/17 07:39:55;;;;;;;5.93;1.90;;;5.10;72.30;;;;;;5012056;28;20137;-63
2023/03/17 07:42:36;;;;;;;4.80;2.03;;;5.20;71.90;;;;;;5012429;28;20042;-62
2023/03/17 07:45:10;;;;;;;3.80;1.80;;;5.20;72.00;;;;;;5011812;28;20052;-62
2023/03/17 07:47:45;;;;;;;4.38;1.77;;;5.20;72.00;;;;;;5010351;28;20041;-60
2023/03/17 07:50:18;;;;;;;4.25;2.38;;;5.20;71.80;;;;;;5015206;28;20045;-61
2023/03/17 07:52:51;;;;;;;3.88;1.70;;;5.30;71.60;;;;;;5013860;28;20155;-62
2023/03/17 07:55:25;;;;;;;4.25;1.92;;;5.40;71.40;;;;;;5009872;28;20049;-62
2023/03/17 07:57:58;;;;;;;3.53;1.70;;;5.50;70.80;;;;;;5012853;28;20064;-62
2023/03/17 08:00:33;;;;;;;4.97;2.17;;;5.60;70.90;;;;;;5007067;28;20054;-64
2023/03/17 08:03:08;;;;;;;4.18;1.88;;;5.70;70.80;;;;;;5011376;28;20049;-64
2023/03/17 08:05:41;;;;;;;5.25;2.08;;;5.90;70.50;;;;;;5010765;28;20068;-60
2023/03/17 08:08:14;;;;;;;3.67;1.63;;;6.00;70.40;;;;;;5012237;28;20046;-63
2023/03/17 08:10:48;;;;;;;4.50;1.95;;;6.10;70.30;;;;;;5009700;28;20484;-61
2023/03/17 08:13:21;;;;;;;4.82;1.80;;;6.20;69.60;;;;;;5015530;28;20049;-62
2023/03/17 08:15:55;;;;;;;3.60;1.90;;;6.30;69.30;;;;;;5033528;28;20473;-62
2023/03/17 08:18:30;;;;;;;4.38;1.88;;;6.50;69.40;;;;;;5035905;28;20107;-62
2023/03/17 08:21:05;;;;;;;4.20;2.00;;;6.60;69.30;;;;;;5033860;28;20087;-70
2023/03/17 08:23:38;;;;;;;5.88;2.13;;;6.70;68.60;;;;;;5031514;28;20161;-70
2023/03/17 08:26:13;;;;;;;4.28;2.10;;;6.80;68.60;;;;;;5032982;28;20595;-62
2023/03/17 08:28:47;;;;;;;2.95;1.75;;;6.90;68.20;;;;;;5033930;28;20114;-61
2023/03/17 08:31:22;;;;;;;3.55;1.80;;;7.00;68.40;;;;;;5027224;28;20123;-71
2023/03/17 08:33:57;;;;;;;4.40;2.10;;;7.10;68.30;;;;;;5013311;28;20065;-70
2023/03/17 08:36:30;;;;;;;4.35;1.80;;;7.20;68.10;;;;;;5013478;28;20048;-63
2023/03/17 08:39:04;;;;;;;4.65;2.13;;;7.20;67.80;;;;;;5012913;28;20559;-63
2023/03/17 08:41:43;;;;;;;4.47;1.95;;;7.40;67.60;;;;;;5009380;28;20073;-70
2023/03/17 08:44:24;;;;;;;4.07;1.95;;;7.40;67.80;;;;;;5012681;28;20433;-70
2023/03/17 08:46:57;;;;;;;5.32;2.17;;;7.60;67.60;;;;;;5011906;28;20054;-61
2023/03/17 08:49:35;;;;;;;3.65;2.08;;;7.70;67.60;;;;;;5020294;28;20065;-61
2023/03/17 08:52:08;;;;;;;3.90;2.00;;;7.80;67.00;;;;;;5010383;28;20530;-61
2023/03/17 08:54:43;;;;;;;3.75;1.90;;;8.00;66.70;;;;;;5015463;28;20042;-62
2023/03/17 08:57:16;;;;;;;3.65;2.00;;;8.10;66.90;;;;;;5015607;28;20127;-61
2023/03/17 08:59:51;;;;;;;3.92;1.90;;;8.20;66.50;;;;;;5012876;28;20042;-62
2023/03/17 09:02:24;;;;;;;4.25;2.10;;;8.40;66.30;;;;;;5015590;28;20045;-62
2023/03/17 09:05:00;;;;;;;4.28;2.00;;;8.50;65.90;;;;;;5014357;28;20064;-60
2023/03/17 09:07:33;;;;;;;3.03;1.65;;;8.60;65.80;;;;;;5006619;28;20069;-63
2023/03/17 09:10:09;;;;;;;3.50;1.58;;;8.70;65.80;;;;;;5038005;28;20079;-64
2023/03/17 09:12:43;;;;;;;6.28;2.17;;;8.80;65.30;;;;;;5037046;28;20061;-62
2023/03/17 09:15:16;;;;;;;4.55;2.15;;;9.00;65.30;;;;;;5037285;28;20057;-61
2023/03/17 09:17:49;;;;;;;4.55;1.95;;;9.10;65.20;;;;;;5033585;28;20041;-61
2023/03/17 09:20:24;;;;;;;3.85;1.80;;;9.20;65.00;;;;;;5015691;28;20124;-62
2023/03/17 09:22:58;;;;;;;3.55;1.70;;;9.30;64.90;;;;;;5015910;28;20054;-62
2023/03/17 09:25:31;;;;;;;3.17;1.60;;;9.50;64.60;;;;;;5017338;28;20247;-62
2023/03/17 09:28:06;;;;;;;4.45;1.85;;;9.60;64.40;;;;;;5014991;28;20120;-62
2023/03/17 09:30:41;;;;;;;5.10;1.95;;;9.70;63.60;;;;;;5010284;28;20064;-63
2023/03/17 09:33:14;;;;;;;3.35;1.90;;;9.80;62.60;;;;;;5018494;28;20057;-63
2023/03/17 09:35:51;;;;;;;4.30;1.52;;;9.90;62.90;;;;;;5006259;28;20061;-61
2023/03/17 09:38:26;;;;;;;3.85;1.80;;;10.10;62.90;;;;;;5008032;28;20378;-61
2023/03/17 09:41:18;;;;;;;3.03;1.45;;;10.20;62.20;;;;;;5017577;28;20050;-60
2023/03/17 09:44:01;;;;;;;3.75;1.80;;;10.40;61.60;;;;;;5016713;28;20053;-60
2023/03/17 09:46:47;;;;;;;2.85;1.25;;;10.50;61.70;;;;;;5016332;28;20404;-63
2023/03/17 09:49:26;;;;;;;4.70;1.77;;;10.60;61.90;;;;;;5015803;28;20045;-61
2023/03/17 09:52:01;;;;;;;3.38;1.40;;;10.60;61.70;;;;;;5007065;28;20072;-62
2023/03/17 09:54:36;;;;;;;4.07;1.80;;;10.60;61.90;;;;;;5016823;28;20055;-62
2023/03/17 09:57:16;;;;;;;4.55;1.60;;;10.70;60.80;;;;;;5013216;28;20489;-67
2023/03/17 09:59:53;;;;;;;3.13;1.50;;;10.70;60.90;;;;;;5016321;28;20041;-66
2023/03/17 10:02:30;;;;;;;3.33;1.48;;;10.80;61.10;;;;;;5014895;28;20058;-61
2023/03/17 10:05:13;;;;;;;4.18;1.70;;;10.90;60.50;;;;;;5016655;28;20116;-61
2023/03/17 10:07:58;;;;;;;3.70;1.50;;;10.90;60.80;;;;;;5014361;28;20400;-62
2023/03/17 10:10:42;;;;;;;2.85;1.30;;;10.90;60.60;;;;;;5017121;28;20053;-63
2023/03/17 10:13:28;;;;;;;2.45;1.33;;;10.90;60.80;;;;;;5016112;28;20041;-64
2023/03/17 10:16:06;;;;;;;3.40;1.67;;;10.90;61.20;;;;;;5014689;28;20065;-61
2023/03/17 10:18:45;;;;;;;5.32;2.05;;;11.00;60.40;;;;;;5010687;28;20120;-60
2023/03/17 10:21:23;;;;;;;4.35;1.60;;;11.00;60.60;;;;;;5013283;28;20124;-62
2023/03/17 10:23:58;;;;;;;4.35;2.05;;;11.00;60.30;;;;;;5015535;28;20087;-63
2023/03/17 10:26:38;;;;;;;3.72;1.58;;;11.00;59.90;;;;;;5016908;28;20045;-62
2023/03/17 10:29:16;;;;;;;3.60;1.60;;;11.10;60.30;;;;;;4998170;28;20111;-61
2023/03/17 10:31:51;;;;;;;4.72;1.67;;;11.10;61.00;;;;;;5034741;28;20041;-62
2023/03/17 10:34:27;;;;;;;4.47;1.60;;;11.10;60.20;;;;;;5014000;28;20046;-62
2023/03/17 10:37:03;;;;;;;3.92;1.65;;;11.10;61.40;;;;;;5014221;28;20136;-70
2023/03/17 10:39:45;;;;;;;4.18;2.00;;;11.10;61.50;;;;;;5017340;28;20059;-69
2023/03/17 10:42:28;;;;;;;4.60;1.85;;;11.20;60.80;;;;;;5015106;28;20069;-70
2023/03/17 10:45:07;;;;;;;3.97;1.92;;;11.20;60.20;;;;;;5013903;28;20132;-70
2023/03/17 10:47:44;;;;;;;5.68;2.08;;;11.30;60.80;;;;;;5014934;28;20057;-70
2023/03/17 10:50:23;;;;;;;5.38;1.80;;;11.30;60.80;;;;;;5015335;28;20433;-69
2023/03/17 10:52:59;;;;;;;4.20;1.60;;;11.40;60.80;;;;;;5016759;28;20046;-69
2023/03/17 10:55:39;;;;;;;3.67;1.70;;;11.40;61.00;;;;;;5015194;28;20511;-62
2023/03/17 10:58:16;;;;;;;4.78;2.15;;;11.50;60.10;;;;;;5015295;28;20056;-62
2023/03/17 11:00:55;;;;;;;4.05;1.90;;;11.40;61.20;;;;;;5018514;28;20054;-67
2023/03/17 11:03:33;;;;;;;5.25;2.47;;;11.50;60.30;;;;;;5014387;28;20100;-67
2023/03/17 11:06:09;;;;;;;5.97;2.30;;;11.50;60.40;;;;;;5024766;28;20316;-62
2023/03/17 11:08:54;;;;;;;5.93;2.15;;;11.50;59.20;;;;;;5036241;28;20701;-62
2023/03/17 11:11:32;;;;;;;5.38;2.00;;;11.60;60.00;;;;;;5035104;28;20111;-62
2023/03/17 11:14:10;;;;;;;5.10;2.00;;;11.70;59.50;;;;;;5035692;28;20057;-62
2023/03/17 11:16:52;;;;;;;4.10;2.17;;;11.70;59.20;;;;;;5019467;28;20038;-66
2023/03/17 11:19:37;;;;;;;5.57;2.15;;;11.80;59.90;;;;;;5033995;28;20064;-65
2023/03/17 11:22:14;;;;;;;4.10;2.20;;;11.90;60.40;;;;;;5034885;28;20052;-62
2023/03/17 11:24:59;;;;;;;4.97;2.28;;;11.90;60.50;;;;;;5036281;28;20065;-62
2023/03/17 11:27:53;;;;;;;5.53;2.40;;;12.00;60.40;;;;;;5035755;28;20048;-62
2023/03/17 11:30:37;;;;;;;6.47;2.47;;;12.10;59.60;;;;;;5035505;28;20052;-62
2023/03/17 11:33:22;;;;;;;7.70;3.25;;;12.20;60.10;;;;;;5008956;28;20045;-61
2023/03/17 11:36:00;;;;;;;7.97;3.00;;;12.30;60.20;;;;;;5013849;28;20045;-62
2023/03/17 11:38:40;;;;;;;5.53;2.60;;;12.30;59.70;;;;;;5015931;28;20548;-62
2023/03/17 11:41:41;;;;;;;6.65;2.80;;;12.30;59.10;;;;;;5015511;28;20053;-67
2023/03/17 11:44:45;;;;;;;6.10;2.70;;;12.40;58.70;;;;;;5013398;28;20080;-68
2023/03/17 11:47:35;;;;;;;5.15;2.50;;;12.50;59.60;;;;;;5015173;28;20477;-61
2023/03/17 11:50:23;;;;;;;7.05;2.90;;;12.60;59.80;;;;;;5012242;28;20416;-62
2023/03/17 11:53:07;;;;;;;8.48;3.25;;;12.60;59.70;;;;;;5016135;28;20060;-62
2023/03/17 11:55:47;;;;;;;5.78;2.50;;;12.60;59.40;;;;;;5015545;28;20164;-63
2023/03/17 11:58:29;;;;;;;5.72;2.55;;;12.70;58.80;;;;;;4993000;28;20432;-64
2023/03/17 12:01:07;;;;;;;6.57;2.95;;;12.80;60.20;;;;;;5034280;28;20541;-62
2023/03/17 12:03:44;;;;;;;5.03;2.40;;;12.80;59.80;;;;;;5034668;28;20053;-65
2023/03/17 12:06:24;;;;;;;5.55;2.40;;;12.80;58.40;;;;;;5010456;28;20053;-64
2023/03/17 12:09:00;;;;;;;5.53;2.53;;;12.90;58.30;;;;;;5010281;28;20060;-65
2023/03/17 12:11:39;;;;;;;5.88;2.70;;;12.90;58.80;;;;;;5034920;28;20423;-70
2023/03/17 12:14:23;;;;;;;5.72;2.00;;;12.90;59.00;;;;;;5015204;28;20045;-70
2023/03/17 12:17:06;;;;;;;6.35;2.60;;;13.10;58.80;;;;;;5014975;28;20049;-68
2023/03/17 12:19:45;;;;;;;6.13;2.78;;;13.10;59.40;;;;;;5015839;28;20053;-70
2023/03/17 12:22:27;;;;;;;5.68;2.63;;;13.10;58.40;;;;;;5013321;28;20091;-63
2023/03/17 12:25:16;;;;;;;5.05;2.28;;;13.10;59.10;;;;;;5014085;28;20062;-62
2023/03/17 12:27:56;;;;;;;6.03;2.70;;;13.20;58.70;;;;;;5015652;28;20042;-61
2023/03/17 12:30:39;;;;;;;4.93;2.47;;;13.20;58.10;;;;;;5009228;28;20061;-65
2023/03/17 12:33:21;;;;;;;6.32;2.63;;;13.40;58.00;;;;;;5034121;28;20145;-63
2023/03/17 12:35:57;;;;;;;6.25;2.67;;;13.40;58.90;;;;;;5012665;28;20052;-64
2023/03/17 12:38:36;;;;;;;4.03;2.15;;;13.50;59.70;;;;;;5012176;28;20069;-62
2023/03/17 12:41:32;;;;;;;5.60;2.33;;;13.50;58.00;;;;;;5016316;28;20060;-61
2023/03/17 12:44:24;;;;;;;6.13;2.85;;;13.60;58.20;;;;;;5010500;28;20053;-61
2023/03/17 12:47:21;;;;;;;5.85;2.70;;;13.60;58.10;;;;;;5033677;28;20069;-61
2023/03/17 12:50:09;;;;;;;5.63;2.00;;;13.60;57.90;;;;;;5033776;28;20053;-61
2023/03/17 12:53:04;;;;;;;4.28;1.73;;;13.60;57.50;;;;;;5032086;28;20062;-66
2023/03/17 12:55:38;;;;;;;5.45;2.13;;;13.60;57.80;;;;;;5032025;28;20143;-68
2023/03/17 12:58:25;;;;;;;4.45;2.20;;;13.60;58.10;;;;;;5032264;28;20057;-70
2023/03/17 13:01:08;;;;;;;3.83;1.75;;;13.60;58.50;;;;;;5038430;28;20558;-72
2023/03/17 13:03:55;;;;;;;3.25;1.67;;;13.60;58.80;;;;;;5018559;28;20058;-70
2023/03/17 13:06:38;;;;;;;4.75;2.08;;;13.60;57.70;;;;;;5018406;28;20037;-66
2023/03/17 13:09:38;;;;;;;5.45;1.70;;;13.60;59.30;;;;;;5018466;28;20111;-66
2023/03/17 13:12:45;;;;;;;3.40;1.75;;;13.70;58.40;;;;;;5013222;28;20046;-62
2023/03/17 13:15:26;;;;;;;4.82;2.00;;;13.60;58.70;;;;;;5018002;28;20054;-61
2023/03/17 13:18:37;;;;;;;3.92;1.85;;;13.70;58.50;;;;;;5017590;28;20041;-61
2023/03/17 13:21:13;;;;;;;5.18;2.38;;;13.70;58.40;;;;;;4970666;28;20419;-62
2023/03/17 13:23:55;;;;;;;5.00;2.15;;;13.70;58.70;;;;;;5036971;28;20045;-62
2023/03/17 13:26:53;;;;;;;4.35;1.95;;;13.70;58.80;;;;;;5035010;28;20041;-67
2023/03/17 13:29:39;;;;;;;5.95;2.00;;;13.70;59.10;;;;;;5024933;28;20076;-66
2023/03/17 13:32:36;;;;;;;5.20;2.47;;;13.70;58.90;;;;;;5037354;28;20079;-67
2023/03/17 13:35:38;;;;;;;7.85;2.20;;;13.80;59.10;;;;;;5037000;28;20045;-66
2023/03/17 13:38:52;;;;;;;6.78;2.90;;;13.80;58.40;;;;;;5015733;28;20049;-62
2023/03/17 13:41:56;;;;;;;6.82;2.92;;;13.80;59.20;;;;;;5016752;28;20053;-63
2023/03/17 13:44:42;;;;;;;7.63;3.65;;;13.80;58.90;;;;;;5003736;28;20042;-63
2023/03/17 13:47:27;;;;;;;6.57;3.25;;;13.80;57.80;;;;;;5016705;28;20196;-64